sensor_id;sensor_type;location;lat;lon;timestamp;P1;durP1;ratioP1;P2;durP2;ratioP2
29214;SDS011;16252;49.816;7.964;2023-06-14T00:01:42;4.28;;;3.03;;
29214;SDS011;16252;49.816;7.964;2023-06-14T00:04:10;4.35;;;3.40;;
29214;SDS011;16252;49.816;7.964;2023-06-14T00:06:35;4.03;;;3.05;;
29214;SDS011;16252;49.816;7.964;2023-06-14T00:09:00;4.18;;;3.20;;
29214;SDS011;16252;49.816;7.964;2023-06-14T00:11:26;4.15;;;3.08;;
29214;SDS011;16252;49.816;7.964;2023-06-14T00:13:51;4.22;;;3.33;;
29214;SDS011;16252;49.816;7.964;2023-06-14T00:16:17;4.30;;;3.50;;
29214;SDS011;16252;49.816;7.964;2023-06-14T00:18:44;4.75;;;3.60;;
29214;SDS011;16252;49.816;7.964;2023-06-14T00:21:09;3.60;;;3.03;;
29214;SDS011;16252;49.816;7.964;2023-06-14T00:23:35;4.65;;;3.33;;
29214;SDS011;16252;49.816;7.964;2023-06-14T00:26:00;3.42;;;3.13;;
29214;SDS011;16252;49.816;7.964;2023-06-14T00:28:25;4.55;;;2.92;;
29214;SDS011;16252;49.816;7.964;2023-06-14T00:30:50;4.57;;;3.40;;
29214;SDS011;16252;49.816;7.964;2023-06-14T00:33:16;3.38;;;2.95;;
29214;SDS011;16252;49.816;7.964;2023-06-14T00:35:41;3.72;;;2.88;;
29214;SDS011;16252;49.816;7.964;2023-06-14T00:38:06;3.30;;;3.00;;
29214;SDS011;16252;49.816;7.964;2023-06-14T00:40:31;4.85;;;3.53;;
29214;SDS011;16252;49.816;7.964;2023-06-14T00:42:57;5.32;;;3.75;;
29214;SDS011;16252;49.816;7.964;2023-06-14T00:45:22;4.13;;;3.40;;
29214;SDS011;16252;49.816;7.964;2023-06-14T00:47:47;4.30;;;3.33;;
29214;SDS011;16252;49.816;7.964;2023-06-14T00:50:17;3.92;;;3.50;;
29214;SDS011;16252;49.816;7.964;2023-06-14T00:52:45;4.88;;;3.60;;
29214;SDS011;16252;49.816;7.964;2023-06-14T00:55:10;4.65;;;3.60;;
29214;SDS011;16252;49.816;7.964;2023-06-14T00:57:36;4.15;;;3.25;;
29214;SDS011;16252;49.816;7.964;2023-06-14T01:00:03;3.22;;;2.92;;
29214;SDS011;16252;49.816;7.964;2023-06-14T01:02:29;4.82;;;3.03;;
29214;SDS011;16252;49.816;7.964;2023-06-14T01:04:55;4.18;;;3.70;;
29214;SDS011;16252;49.816;7.964;2023-06-14T01:15:29;5.70;;;3.47;;
29214;SDS011;16252;49.816;7.964;2023-06-14T01:17:56;6.18;;;3.13;;
29214;SDS011;16252;49.816;7.964;2023-06-14T01:20:28;3.97;;;3.03;;
29214;SDS011;16252;49.816;7.964;2023-06-14T01:22:57;4.00;;;3.25;;
29214;SDS011;16252;49.816;7.964;2023-06-14T01:25:23;4.70;;;3.42;;
29214;SDS011;16252;49.816;7.964;2023-06-14T01:27:49;3.55;;;3.20;;
29214;SDS011;16252;49.816;7.964;2023-06-14T01:30:15;5.35;;;3.60;;
29214;SDS011;16252;49.816;7.964;2023-06-14T01:32:42;3.70;;;2.90;;
29214;SDS011;16252;49.816;7.964;2023-06-14T01:35:07;5.75;;;3.55;;
29214;SDS011;16252;49.816;7.964;2023-06-14T01:37:32;3.88;;;3.25;;
29214;SDS011;16252;49.816;7.964;2023-06-14T01:39:59;6.60;;;3.08;;
29214;SDS011;16252;49.816;7.964;2023-06-14T01:42:24;3.83;;;3.28;;
29214;SDS011;16252;49.816;7.964;2023-06-14T01:44:50;4.15;;;3.40;;
29214;SDS011;16252;49.816;7.964;2023-06-14T01:47:18;4.72;;;3.42;;
29214;SDS011;16252;49.816;7.964;2023-06-14T01:49:45;4.55;;;3.58;;
29214;SDS011;16252;49.816;7.964;2023-06-14T01:52:11;7.38;;;3.25;;
29214;SDS011;16252;49.816;7.964;2023-06-14T01:54:37;3.63;;;3.13;;
29214;SDS011;16252;49.816;7.964;2023-06-14T01:57:06;4.93;;;3.47;;
29214;SDS011;16252;49.816;7.964;2023-06-14T01:59:33;4.03;;;3.50;;
29214;SDS011;16252;49.816;7.964;2023-06-14T02:02:00;3.38;;;2.97;;
29214;SDS011;16252;49.816;7.964;2023-06-14T02:04:26;4.07;;;3.00;;
29214;SDS011;16252;49.816;7.964;2023-06-14T02:06:51;4.35;;;3.38;;
29214;SDS011;16252;49.816;7.964;2023-06-14T02:09:17;4.45;;;3.22;;
29214;SDS011;16252;49.816;7.964;2023-06-14T02:11:42;3.95;;;3.28;;
29214;SDS011;16252;49.816;7.964;2023-06-14T02:14:07;6.22;;;3.92;;
29214;SDS011;16252;49.816;7.964;2023-06-14T02:16:35;5.30;;;3.65;;
29214;SDS011;16252;49.816;7.964;2023-06-14T02:19:01;6.07;;;3.42;;
29214;SDS011;16252;49.816;7.964;2023-06-14T02:21:26;4.55;;;3.45;;
29214;SDS011;16252;49.816;7.964;2023-06-14T02:23:51;5.03;;;3.38;;
29214;SDS011;16252;49.816;7.964;2023-06-14T02:26:17;5.35;;;3.60;;
29214;SDS011;16252;49.816;7.964;2023-06-14T02:28:42;5.25;;;3.35;;
29214;SDS011;16252;49.816;7.964;2023-06-14T02:31:07;5.60;;;3.40;;
29214;SDS011;16252;49.816;7.964;2023-06-14T02:33:33;3.92;;;3.40;;
29214;SDS011;16252;49.816;7.964;2023-06-14T02:35:58;4.30;;;3.55;;
29214;SDS011;16252;49.816;7.964;2023-06-14T02:38:23;4.60;;;3.40;;
29214;SDS011;16252;49.816;7.964;2023-06-14T02:40:48;3.45;;;3.13;;
29214;SDS011;16252;49.816;7.964;2023-06-14T02:43:14;4.20;;;3.38;;
29214;SDS011;16252;49.816;7.964;2023-06-14T02:45:40;3.92;;;3.30;;
29214;SDS011;16252;49.816;7.964;2023-06-14T02:48:05;3.35;;;2.85;;
29214;SDS011;16252;49.816;7.964;2023-06-14T02:50:30;4.75;;;3.67;;
29214;SDS011;16252;49.816;7.964;2023-06-14T02:52:56;4.38;;;3.40;;
29214;SDS011;16252;49.816;7.964;2023-06-14T02:55:22;3.92;;;3.50;;
29214;SDS011;16252;49.816;7.964;2023-06-14T02:57:47;6.35;;;3.83;;
29214;SDS011;16252;49.816;7.964;2023-06-14T03:00:13;3.70;;;3.20;;
29214;SDS011;16252;49.816;7.964;2023-06-14T03:02:39;4.22;;;3.58;;
29214;SDS011;16252;49.816;7.964;2023-06-14T03:05:04;4.50;;;3.47;;
29214;SDS011;16252;49.816;7.964;2023-06-14T03:07:31;4.13;;;3.38;;
29214;SDS011;16252;49.816;7.964;2023-06-14T03:09:57;4.38;;;3.45;;
29214;SDS011;16252;49.816;7.964;2023-06-14T03:12:22;4.35;;;3.50;;
29214;SDS011;16252;49.816;7.964;2023-06-14T03:14:49;4.10;;;3.63;;
29214;SDS011;16252;49.816;7.964;2023-06-14T03:17:16;6.22;;;4.03;;
29214;SDS011;16252;49.816;7.964;2023-06-14T03:19:42;4.55;;;3.88;;
29214;SDS011;16252;49.816;7.964;2023-06-14T03:22:08;4.53;;;3.42;;
29214;SDS011;16252;49.816;7.964;2023-06-14T03:24:33;4.45;;;3.70;;
29214;SDS011;16252;49.816;7.964;2023-06-14T03:27:01;6.03;;;3.47;;
29214;SDS011;16252;49.816;7.964;2023-06-14T03:29:27;4.43;;;3.40;;
29214;SDS011;16252;49.816;7.964;2023-06-14T03:31:59;4.47;;;3.67;;
29214;SDS011;16252;49.816;7.964;2023-06-14T03:34:25;5.20;;;3.28;;
29214;SDS011;16252;49.816;7.964;2023-06-14T03:36:51;4.38;;;3.35;;
29214;SDS011;16252;49.816;7.964;2023-06-14T03:39:17;4.72;;;3.63;;
29214;SDS011;16252;49.816;7.964;2023-06-14T03:41:42;4.53;;;3.42;;
29214;SDS011;16252;49.816;7.964;2023-06-14T03:44:07;4.22;;;3.08;;
29214;SDS011;16252;49.816;7.964;2023-06-14T03:46:32;4.15;;;3.45;;
29214;SDS011;16252;49.816;7.964;2023-06-14T03:48:58;4.22;;;3.33;;
29214;SDS011;16252;49.816;7.964;2023-06-14T03:51:23;5.25;;;3.80;;
29214;SDS011;16252;49.816;7.964;2023-06-14T03:53:50;4.10;;;3.33;;
29214;SDS011;16252;49.816;7.964;2023-06-14T03:56:15;5.38;;;3.75;;
29214;SDS011;16252;49.816;7.964;2023-06-14T03:58:40;4.57;;;3.88;;
29214;SDS011;16252;49.816;7.964;2023-06-14T04:01:06;4.75;;;3.63;;
29214;SDS011;16252;49.816;7.964;2023-06-14T04:03:32;3.80;;;3.25;;
29214;SDS011;16252;49.816;7.964;2023-06-14T04:05:58;3.90;;;3.47;;
29214;SDS011;16252;49.816;7.964;2023-06-14T04:08:24;4.97;;;3.85;;
29214;SDS011;16252;49.816;7.964;2023-06-14T04:10:49;5.38;;;3.95;;
29214;SDS011;16252;49.816;7.964;2023-06-14T04:13:15;4.32;;;3.60;;
29214;SDS011;16252;49.816;7.964;2023-06-14T04:15:40;4.35;;;3.78;;
29214;SDS011;16252;49.816;7.964;2023-06-14T04:18:10;4.38;;;3.58;;
29214;SDS011;16252;49.816;7.964;2023-06-14T04:20:37;4.85;;;3.80;;
29214;SDS011;16252;49.816;7.964;2023-06-14T04:23:16;5.25;;;3.83;;
29214;SDS011;16252;49.816;7.964;2023-06-14T04:25:46;6.00;;;3.58;;
29214;SDS011;16252;49.816;7.964;2023-06-14T04:28:12;4.55;;;3.90;;
29214;SDS011;16252;49.816;7.964;2023-06-14T04:30:39;4.35;;;3.95;;
29214;SDS011;16252;49.816;7.964;2023-06-14T04:33:05;6.22;;;3.83;;
29214;SDS011;16252;49.816;7.964;2023-06-14T04:35:31;4.63;;;3.38;;
29214;SDS011;16252;49.816;7.964;2023-06-14T04:37:57;7.25;;;3.50;;
29214;SDS011;16252;49.816;7.964;2023-06-14T04:40:24;4.93;;;3.53;;
29214;SDS011;16252;49.816;7.964;2023-06-14T04:42:49;5.32;;;3.53;;
29214;SDS011;16252;49.816;7.964;2023-06-14T04:45:15;5.28;;;3.72;;
29214;SDS011;16252;49.816;7.964;2023-06-14T04:47:41;4.55;;;4.00;;
29214;SDS011;16252;49.816;7.964;2023-06-14T04:50:07;5.05;;;3.90;;
29214;SDS011;16252;49.816;7.964;2023-06-14T04:52:32;5.00;;;3.50;;
29214;SDS011;16252;49.816;7.964;2023-06-14T04:55:00;4.80;;;3.72;;
29214;SDS011;16252;49.816;7.964;2023-06-14T04:57:26;6.97;;;4.00;;
29214;SDS011;16252;49.816;7.964;2023-06-14T04:59:52;5.68;;;3.63;;
29214;SDS011;16252;49.816;7.964;2023-06-14T05:02:20;6.43;;;3.70;;
29214;SDS011;16252;49.816;7.964;2023-06-14T05:04:47;4.18;;;3.72;;
29214;SDS011;16252;49.816;7.964;2023-06-14T05:07:12;5.93;;;3.60;;
29214;SDS011;16252;49.816;7.964;2023-06-14T05:09:39;4.32;;;3.80;;
29214;SDS011;16252;49.816;7.964;2023-06-14T05:12:04;8.80;;;3.58;;
29214;SDS011;16252;49.816;7.964;2023-06-14T05:14:32;7.57;;;3.60;;
29214;SDS011;16252;49.816;7.964;2023-06-14T05:16:58;4.63;;;3.88;;
29214;SDS011;16252;49.816;7.964;2023-06-14T05:19:23;4.53;;;3.33;;
29214;SDS011;16252;49.816;7.964;2023-06-14T05:21:48;4.93;;;3.83;;
29214;SDS011;16252;49.816;7.964;2023-06-14T05:24:14;6.50;;;3.38;;
29214;SDS011;16252;49.816;7.964;2023-06-14T05:26:40;5.63;;;3.60;;
29214;SDS011;16252;49.816;7.964;2023-06-14T05:29:05;8.45;;;3.65;;
29214;SDS011;16252;49.816;7.964;2023-06-14T05:31:31;4.28;;;3.35;;
29214;SDS011;16252;49.816;7.964;2023-06-14T05:33:56;5.43;;;3.47;;
29214;SDS011;16252;49.816;7.964;2023-06-14T05:36:22;6.55;;;3.55;;
29214;SDS011;16252;49.816;7.964;2023-06-14T05:38:47;6.55;;;3.42;;
29214;SDS011;16252;49.816;7.964;2023-06-14T05:41:13;6.43;;;3.88;;
29214;SDS011;16252;49.816;7.964;2023-06-14T05:43:38;4.90;;;3.85;;
29214;SDS011;16252;49.816;7.964;2023-06-14T05:46:03;8.35;;;3.60;;
29214;SDS011;16252;49.816;7.964;2023-06-14T05:48:30;5.10;;;3.80;;
29214;SDS011;16252;49.816;7.964;2023-06-14T05:50:55;6.28;;;3.35;;
29214;SDS011;16252;49.816;7.964;2023-06-14T05:53:21;4.55;;;3.72;;
29214;SDS011;16252;49.816;7.964;2023-06-14T05:55:46;4.70;;;3.83;;
29214;SDS011;16252;49.816;7.964;2023-06-14T05:58:11;3.55;;;3.15;;
29214;SDS011;16252;49.816;7.964;2023-06-14T06:00:38;3.55;;;3.13;;
29214;SDS011;16252;49.816;7.964;2023-06-14T06:03:04;4.10;;;3.00;;
29214;SDS011;16252;49.816;7.964;2023-06-14T06:05:29;3.42;;;2.85;;
29214;SDS011;16252;49.816;7.964;2023-06-14T06:07:55;5.72;;;3.20;;
29214;SDS011;16252;49.816;7.964;2023-06-14T06:10:20;4.18;;;3.17;;
29214;SDS011;16252;49.816;7.964;2023-06-14T06:12:46;4.57;;;3.25;;
29214;SDS011;16252;49.816;7.964;2023-06-14T06:15:12;4.57;;;3.10;;
29214;SDS011;16252;49.816;7.964;2023-06-14T06:17:38;4.97;;;3.00;;
29214;SDS011;16252;49.816;7.964;2023-06-14T06:20:04;5.22;;;3.60;;
29214;SDS011;16252;49.816;7.964;2023-06-14T06:22:33;4.05;;;3.35;;
29214;SDS011;16252;49.816;7.964;2023-06-14T06:24:58;5.07;;;3.13;;
29214;SDS011;16252;49.816;7.964;2023-06-14T06:27:23;5.07;;;3.28;;
29214;SDS011;16252;49.816;7.964;2023-06-14T06:29:48;6.80;;;3.35;;
29214;SDS011;16252;49.816;7.964;2023-06-14T06:32:15;4.70;;;3.22;;
29214;SDS011;16252;49.816;7.964;2023-06-14T06:34:40;8.00;;;3.28;;
29214;SDS011;16252;49.816;7.964;2023-06-14T06:37:06;6.60;;;3.58;;
29214;SDS011;16252;49.816;7.964;2023-06-14T06:39:31;10.02;;;3.25;;
29214;SDS011;16252;49.816;7.964;2023-06-14T06:41:56;5.75;;;3.00;;
29214;SDS011;16252;49.816;7.964;2023-06-14T06:44:22;6.10;;;2.38;;
29214;SDS011;16252;49.816;7.964;2023-06-14T06:46:47;3.47;;;2.78;;
29214;SDS011;16252;49.816;7.964;2023-06-14T06:49:15;4.72;;;2.70;;
29214;SDS011;16252;49.816;7.964;2023-06-14T06:51:43;4.03;;;2.45;;
29214;SDS011;16252;49.816;7.964;2023-06-14T06:54:27;4.18;;;3.00;;
29214;SDS011;16252;49.816;7.964;2023-06-14T06:56:53;3.78;;;2.47;;
29214;SDS011;16252;49.816;7.964;2023-06-14T06:59:18;3.78;;;2.78;;
29214;SDS011;16252;49.816;7.964;2023-06-14T07:01:43;4.25;;;2.60;;
29214;SDS011;16252;49.816;7.964;2023-06-14T07:04:08;11.10;;;2.75;;
29214;SDS011;16252;49.816;7.964;2023-06-14T07:06:34;4.50;;;2.28;;
29214;SDS011;16252;49.816;7.964;2023-06-14T07:08:59;3.80;;;2.60;;
29214;SDS011;16252;49.816;7.964;2023-06-14T07:11:26;3.92;;;2.55;;
29214;SDS011;16252;49.816;7.964;2023-06-14T07:13:52;2.65;;;2.22;;
29214;SDS011;16252;49.816;7.964;2023-06-14T07:16:17;4.38;;;2.15;;
29214;SDS011;16252;49.816;7.964;2023-06-14T07:18:42;2.60;;;2.28;;
29214;SDS011;16252;49.816;7.964;2023-06-14T07:21:08;3.35;;;2.45;;
29214;SDS011;16252;49.816;7.964;2023-06-14T07:23:33;3.58;;;2.13;;
29214;SDS011;16252;49.816;7.964;2023-06-14T07:25:59;2.50;;;2.20;;
29214;SDS011;16252;49.816;7.964;2023-06-14T07:28:24;2.20;;;2.00;;
29214;SDS011;16252;49.816;7.964;2023-06-14T07:30:50;2.78;;;2.10;;
29214;SDS011;16252;49.816;7.964;2023-06-14T07:33:15;4.13;;;2.17;;
29214;SDS011;16252;49.816;7.964;2023-06-14T07:35:40;3.05;;;2.20;;
29214;SDS011;16252;49.816;7.964;2023-06-14T07:38:06;3.38;;;1.75;;
29214;SDS011;16252;49.816;7.964;2023-06-14T07:40:31;1.93;;;1.77;;
29214;SDS011;16252;49.816;7.964;2023-06-14T07:42:56;2.28;;;1.83;;
29214;SDS011;16252;49.816;7.964;2023-06-14T07:45:22;2.28;;;1.80;;
29214;SDS011;16252;49.816;7.964;2023-06-14T07:47:47;2.77;;;1.80;;
29214;SDS011;16252;49.816;7.964;2023-06-14T07:50:12;1.97;;;1.50;;
29214;SDS011;16252;49.816;7.964;2023-06-14T07:52:38;2.75;;;1.60;;
29214;SDS011;16252;49.816;7.964;2023-06-14T07:55:04;2.17;;;1.80;;
29214;SDS011;16252;49.816;7.964;2023-06-14T07:57:30;1.70;;;1.38;;
29214;SDS011;16252;49.816;7.964;2023-06-14T07:59:56;3.20;;;1.90;;
29214;SDS011;16252;49.816;7.964;2023-06-14T08:02:21;2.97;;;1.70;;
29214;SDS011;16252;49.816;7.964;2023-06-14T08:04:46;1.43;;;1.33;;
29214;SDS011;16252;49.816;7.964;2023-06-14T08:07:13;3.60;;;1.83;;
29214;SDS011;16252;49.816;7.964;2023-06-14T08:09:38;2.75;;;1.88;;
29214;SDS011;16252;49.816;7.964;2023-06-14T08:12:07;1.80;;;1.48;;
29214;SDS011;16252;49.816;7.964;2023-06-14T08:14:34;2.08;;;1.42;;
29214;SDS011;16252;49.816;7.964;2023-06-14T08:16:59;2.25;;;1.45;;
29214;SDS011;16252;49.816;7.964;2023-06-14T08:19:25;1.97;;;1.37;;
29214;SDS011;16252;49.816;7.964;2023-06-14T08:21:50;1.73;;;1.30;;
29214;SDS011;16252;49.816;7.964;2023-06-14T08:24:16;1.95;;;1.23;;
29214;SDS011;16252;49.816;7.964;2023-06-14T08:26:41;1.45;;;1.35;;
29214;SDS011;16252;49.816;7.964;2023-06-14T08:29:07;1.80;;;1.43;;
29214;SDS011;16252;49.816;7.964;2023-06-14T08:31:33;1.48;;;1.38;;
29214;SDS011;16252;49.816;7.964;2023-06-14T08:33:58;1.88;;;1.40;;
29214;SDS011;16252;49.816;7.964;2023-06-14T08:36:24;1.48;;;1.30;;
29214;SDS011;16252;49.816;7.964;2023-06-14T08:38:49;1.42;;;1.33;;
29214;SDS011;16252;49.816;7.964;2023-06-14T08:41:16;2.53;;;1.40;;
29214;SDS011;16252;49.816;7.964;2023-06-14T08:43:46;2.13;;;1.33;;
29214;SDS011;16252;49.816;7.964;2023-06-14T08:46:12;2.05;;;1.45;;
29214;SDS011;16252;49.816;7.964;2023-06-14T08:48:41;3.45;;;1.08;;
29214;SDS011;16252;49.816;7.964;2023-06-14T08:51:08;1.30;;;1.20;;
29214;SDS011;16252;49.816;7.964;2023-06-14T08:53:35;2.38;;;1.45;;
29214;SDS011;16252;49.816;7.964;2023-06-14T08:56:06;1.83;;;1.00;;
29214;SDS011;16252;49.816;7.964;2023-06-14T08:58:38;4.43;;;1.23;;
29214;SDS011;16252;49.816;7.964;2023-06-14T09:01:13;2.17;;;1.20;;
29214;SDS011;16252;49.816;7.964;2023-06-14T09:03:40;1.67;;;1.15;;
29214;SDS011;16252;49.816;7.964;2023-06-14T09:06:06;2.28;;;1.40;;
29214;SDS011;16252;49.816;7.964;2023-06-14T09:08:34;1.30;;;1.20;;
29214;SDS011;16252;49.816;7.964;2023-06-14T09:11:00;1.25;;;1.15;;
29214;SDS011;16252;49.816;7.964;2023-06-14T09:13:27;2.22;;;1.27;;
29214;SDS011;16252;49.816;7.964;2023-06-14T09:15:52;1.38;;;1.05;;
29214;SDS011;16252;49.816;7.964;2023-06-14T09:18:18;1.30;;;0.90;;
29214;SDS011;16252;49.816;7.964;2023-06-14T09:20:45;0.98;;;0.90;;
29214;SDS011;16252;49.816;7.964;2023-06-14T09:23:12;1.08;;;0.98;;
29214;SDS011;16252;49.816;7.964;2023-06-14T09:25:41;1.15;;;0.95;;
29214;SDS011;16252;49.816;7.964;2023-06-14T09:28:09;1.50;;;1.20;;
29214;SDS011;16252;49.816;7.964;2023-06-14T09:30:35;1.25;;;0.80;;
29214;SDS011;16252;49.816;7.964;2023-06-14T09:33:01;3.45;;;1.00;;
29214;SDS011;16252;49.816;7.964;2023-06-14T09:35:26;1.42;;;0.95;;
29214;SDS011;16252;49.816;7.964;2023-06-14T09:37:54;1.20;;;1.10;;
29214;SDS011;16252;49.816;7.964;2023-06-14T09:40:20;2.30;;;1.23;;
29214;SDS011;16252;49.816;7.964;2023-06-14T09:42:46;1.30;;;1.20;;
29214;SDS011;16252;49.816;7.964;2023-06-14T09:45:12;1.83;;;1.30;;
29214;SDS011;16252;49.816;7.964;2023-06-14T09:47:39;0.85;;;0.80;;
29214;SDS011;16252;49.816;7.964;2023-06-14T09:50:05;1.05;;;0.90;;
29214;SDS011;16252;49.816;7.964;2023-06-14T09:52:31;1.05;;;0.95;;
29214;SDS011;16252;49.816;7.964;2023-06-14T09:54:56;1.00;;;0.90;;
29214;SDS011;16252;49.816;7.964;2023-06-14T09:57:24;0.85;;;0.85;;
29214;SDS011;16252;49.816;7.964;2023-06-14T09:59:52;1.00;;;0.90;;
29214;SDS011;16252;49.816;7.964;2023-06-14T10:02:22;1.70;;;0.90;;
29214;SDS011;16252;49.816;7.964;2023-06-14T10:05:04;1.40;;;1.10;;
29214;SDS011;16252;49.816;7.964;2023-06-14T10:07:32;1.10;;;1.00;;
29214;SDS011;16252;49.816;7.964;2023-06-14T10:10:03;1.15;;;1.05;;
29214;SDS011;16252;49.816;7.964;2023-06-14T10:12:30;1.10;;;1.00;;
29214;SDS011;16252;49.816;7.964;2023-06-14T10:14:56;1.38;;;1.00;;
29214;SDS011;16252;49.816;7.964;2023-06-14T10:20:30;1.02;;;0.88;;
29214;SDS011;16252;49.816;7.964;2023-06-14T10:23:13;1.42;;;1.10;;
29214;SDS011;16252;49.816;7.964;2023-06-14T10:25:43;1.40;;;1.17;;
29214;SDS011;16252;49.816;7.964;2023-06-14T10:28:19;2.33;;;0.85;;
29214;SDS011;16252;49.816;7.964;2023-06-14T10:34:20;0.70;;;0.70;;
29214;SDS011;16252;49.816;7.964;2023-06-14T10:36:25;1.00;;;0.80;;
29214;SDS011;16252;49.816;7.964;2023-06-14T10:39:10;1.48;;;0.82;;
29214;SDS011;16252;49.816;7.964;2023-06-14T10:41:40;1.05;;;0.95;;
29214;SDS011;16252;49.816;7.964;2023-06-14T10:46:37;1.05;;;0.90;;
29214;SDS011;16252;49.816;7.964;2023-06-14T10:49:02;3.00;;;0.90;;
29214;SDS011;16252;49.816;7.964;2023-06-14T10:51:29;1.02;;;0.75;;
29214;SDS011;16252;49.816;7.964;2023-06-14T10:53:55;0.93;;;0.90;;
29214;SDS011;16252;49.816;7.964;2023-06-14T11:01:19;0.70;;;0.65;;
29214;SDS011;16252;49.816;7.964;2023-06-14T11:03:56;1.95;;;0.90;;
29214;SDS011;16252;49.816;7.964;2023-06-14T11:06:28;1.13;;;0.70;;
29214;SDS011;16252;49.816;7.964;2023-06-14T11:09:26;4.00;;;1.15;;
29214;SDS011;16252;49.816;7.964;2023-06-14T11:12:04;0.88;;;0.60;;
29214;SDS011;16252;49.816;7.964;2023-06-14T11:14:32;0.85;;;0.85;;
29214;SDS011;16252;49.816;7.964;2023-06-14T11:16:57;1.40;;;0.85;;
29214;SDS011;16252;49.816;7.964;2023-06-14T11:19:22;1.92;;;0.85;;
29214;SDS011;16252;49.816;7.964;2023-06-14T11:21:48;0.77;;;0.77;;
29214;SDS011;16252;49.816;7.964;2023-06-14T11:24:14;1.20;;;1.00;;
29214;SDS011;16252;49.816;7.964;2023-06-14T11:26:39;1.25;;;1.13;;
29214;SDS011;16252;49.816;7.964;2023-06-14T11:29:05;2.40;;;1.10;;
29214;SDS011;16252;49.816;7.964;2023-06-14T11:31:30;1.70;;;1.00;;
29214;SDS011;16252;49.816;7.964;2023-06-14T11:33:56;1.25;;;1.08;;
29214;SDS011;16252;49.816;7.964;2023-06-14T11:36:23;1.25;;;1.10;;
29214;SDS011;16252;49.816;7.964;2023-06-14T11:38:57;1.15;;;1.05;;
29214;SDS011;16252;49.816;7.964;2023-06-14T11:41:31;2.20;;;1.10;;
29214;SDS011;16252;49.816;7.964;2023-06-14T11:43:59;1.33;;;1.08;;
29214;SDS011;16252;49.816;7.964;2023-06-14T11:46:25;1.10;;;1.00;;
29214;SDS011;16252;49.816;7.964;2023-06-14T11:48:51;1.60;;;1.30;;
29214;SDS011;16252;49.816;7.964;2023-06-14T11:51:16;1.38;;;1.13;;
29214;SDS011;16252;49.816;7.964;2023-06-14T11:53:43;1.50;;;1.38;;
29214;SDS011;16252;49.816;7.964;2023-06-14T11:56:08;1.98;;;1.30;;
29214;SDS011;16252;49.816;7.964;2023-06-14T11:58:34;1.13;;;1.02;;
29214;SDS011;16252;49.816;7.964;2023-06-14T12:00:59;1.00;;;0.88;;
29214;SDS011;16252;49.816;7.964;2023-06-14T12:03:25;1.23;;;1.00;;
29214;SDS011;16252;49.816;7.964;2023-06-14T12:06:02;1.20;;;1.10;;
29214;SDS011;16252;49.816;7.964;2023-06-14T12:08:32;2.53;;;1.08;;
29214;SDS011;16252;49.816;7.964;2023-06-14T12:11:04;1.40;;;0.90;;
29214;SDS011;16252;49.816;7.964;2023-06-14T12:13:30;1.70;;;0.98;;
29214;SDS011;16252;49.816;7.964;2023-06-14T12:18:32;1.15;;;1.05;;
29214;SDS011;16252;49.816;7.964;2023-06-14T12:21:04;0.82;;;0.82;;
29214;SDS011;16252;49.816;7.964;2023-06-14T12:23:47;3.88;;;1.00;;
29214;SDS011;16252;49.816;7.964;2023-06-14T12:26:17;1.40;;;1.00;;
29214;SDS011;16252;49.816;7.964;2023-06-14T12:28:45;1.40;;;1.00;;
29214;SDS011;16252;49.816;7.964;2023-06-14T12:31:11;1.23;;;1.13;;
29214;SDS011;16252;49.816;7.964;2023-06-14T12:33:37;0.90;;;0.85;;
29214;SDS011;16252;49.816;7.964;2023-06-14T12:36:03;1.42;;;1.05;;
29214;SDS011;16252;49.816;7.964;2023-06-14T12:38:30;1.42;;;1.15;;
29214;SDS011;16252;49.816;7.964;2023-06-14T12:40:56;1.00;;;0.90;;
29214;SDS011;16252;49.816;7.964;2023-06-14T12:43:22;1.15;;;1.00;;
29214;SDS011;16252;49.816;7.964;2023-06-14T12:45:47;1.25;;;1.15;;
29214;SDS011;16252;49.816;7.964;2023-06-14T12:48:13;1.15;;;1.00;;
29214;SDS011;16252;49.816;7.964;2023-06-14T12:50:38;1.13;;;1.02;;
29214;SDS011;16252;49.816;7.964;2023-06-14T12:53:03;1.30;;;1.20;;
29214;SDS011;16252;49.816;7.964;2023-06-14T12:55:29;1.70;;;1.15;;
29214;SDS011;16252;49.816;7.964;2023-06-14T12:57:55;1.40;;;1.10;;
29214;SDS011;16252;49.816;7.964;2023-06-14T13:00:20;2.05;;;1.20;;
29214;SDS011;16252;49.816;7.964;2023-06-14T13:02:46;1.67;;;1.35;;
29214;SDS011;16252;49.816;7.964;2023-06-14T13:05:11;1.15;;;1.05;;
29214;SDS011;16252;49.816;7.964;2023-06-14T13:07:37;1.17;;;1.00;;
29214;SDS011;16252;49.816;7.964;2023-06-14T13:10:02;1.67;;;1.20;;
29214;SDS011;16252;49.816;7.964;2023-06-14T13:12:28;1.50;;;1.13;;
29214;SDS011;16252;49.816;7.964;2023-06-14T13:14:53;1.20;;;1.10;;
29214;SDS011;16252;49.816;7.964;2023-06-14T13:17:18;1.42;;;1.20;;
29214;SDS011;16252;49.816;7.964;2023-06-14T13:19:44;4.05;;;1.38;;
29214;SDS011;16252;49.816;7.964;2023-06-14T13:22:09;1.48;;;1.08;;
29214;SDS011;16252;49.816;7.964;2023-06-14T13:24:35;2.28;;;1.55;;
29214;SDS011;16252;49.816;7.964;2023-06-14T13:27:00;1.48;;;1.33;;
29214;SDS011;16252;49.816;7.964;2023-06-14T13:29:25;4.72;;;1.40;;
29214;SDS011;16252;49.816;7.964;2023-06-14T13:31:51;1.92;;;1.40;;
29214;SDS011;16252;49.816;7.964;2023-06-14T13:34:17;1.83;;;1.17;;
29214;SDS011;16252;49.816;7.964;2023-06-14T13:36:42;1.30;;;1.20;;
29214;SDS011;16252;49.816;7.964;2023-06-14T13:39:08;1.50;;;1.10;;
29214;SDS011;16252;49.816;7.964;2023-06-14T13:41:33;1.30;;;1.20;;
29214;SDS011;16252;49.816;7.964;2023-06-14T13:44:00;1.25;;;1.15;;
29214;SDS011;16252;49.816;7.964;2023-06-14T13:46:26;3.28;;;1.67;;
29214;SDS011;16252;49.816;7.964;2023-06-14T13:48:51;1.52;;;1.40;;
29214;SDS011;16252;49.816;7.964;2023-06-14T13:51:17;2.17;;;1.50;;
29214;SDS011;16252;49.816;7.964;2023-06-14T13:53:45;2.47;;;1.63;;
29214;SDS011;16252;49.816;7.964;2023-06-14T13:56:11;1.58;;;1.40;;
29214;SDS011;16252;49.816;7.964;2023-06-14T13:58:37;2.28;;;1.65;;
29214;SDS011;16252;49.816;7.964;2023-06-14T14:01:03;1.73;;;1.50;;
29214;SDS011;16252;49.816;7.964;2023-06-14T14:03:28;1.60;;;1.48;;
29214;SDS011;16252;49.816;7.964;2023-06-14T14:05:53;2.00;;;1.60;;
29214;SDS011;16252;49.816;7.964;2023-06-14T14:08:18;1.60;;;1.40;;
29214;SDS011;16252;49.816;7.964;2023-06-14T14:10:44;1.92;;;1.60;;
29214;SDS011;16252;49.816;7.964;2023-06-14T14:13:09;1.83;;;1.48;;
29214;SDS011;16252;49.816;7.964;2023-06-14T14:15:34;1.77;;;1.45;;
29214;SDS011;16252;49.816;7.964;2023-06-14T14:18:00;4.30;;;1.63;;
29214;SDS011;16252;49.816;7.964;2023-06-14T14:20:25;3.40;;;1.50;;
29214;SDS011;16252;49.816;7.964;2023-06-14T14:22:50;2.67;;;1.67;;
29214;SDS011;16252;49.816;7.964;2023-06-14T14:25:15;1.60;;;1.30;;
29214;SDS011;16252;49.816;7.964;2023-06-14T14:27:41;2.65;;;1.67;;
29214;SDS011;16252;49.816;7.964;2023-06-14T14:30:06;1.83;;;1.45;;
29214;SDS011;16252;49.816;7.964;2023-06-14T14:32:32;3.00;;;1.70;;
29214;SDS011;16252;49.816;7.964;2023-06-14T14:34:57;1.65;;;1.40;;
29214;SDS011;16252;49.816;7.964;2023-06-14T14:37:23;1.52;;;1.38;;
29214;SDS011;16252;49.816;7.964;2023-06-14T14:39:48;1.42;;;1.30;;
29214;SDS011;16252;49.816;7.964;2023-06-14T14:42:14;4.20;;;1.52;;
29214;SDS011;16252;49.816;7.964;2023-06-14T14:44:39;1.52;;;1.42;;
29214;SDS011;16252;49.816;7.964;2023-06-14T14:47:05;1.65;;;1.50;;
29214;SDS011;16252;49.816;7.964;2023-06-14T14:49:31;1.30;;;1.20;;
29214;SDS011;16252;49.816;7.964;2023-06-14T14:51:57;1.40;;;1.30;;
29214;SDS011;16252;49.816;7.964;2023-06-14T14:54:22;1.88;;;1.55;;
29214;SDS011;16252;49.816;7.964;2023-06-14T14:56:48;3.67;;;1.40;;
29214;SDS011;16252;49.816;7.964;2023-06-14T14:59:14;2.30;;;1.42;;
29214;SDS011;16252;49.816;7.964;2023-06-14T15:01:39;2.10;;;1.58;;
29214;SDS011;16252;49.816;7.964;2023-06-14T15:04:05;1.70;;;1.45;;
29214;SDS011;16252;49.816;7.964;2023-06-14T15:06:30;1.90;;;1.30;;
29214;SDS011;16252;49.816;7.964;2023-06-14T15:08:55;1.90;;;1.50;;